createdAt,value
2022-09-25T00:01:18.451Z,10.70
2022-09-25T00:03:50.887Z,10.60
2022-09-25T00:06:25.388Z,10.60
2022-09-25T00:08:53.794Z,10.60
2022-09-25T00:11:31.333Z,10.50
2022-09-25T00:14:02.277Z,10.50
2022-09-25T00:16:32.867Z,10.50
2022-09-25T00:19:20.057Z,10.50
2022-09-25T00:21:53.787Z,10.50
2022-09-25T00:24:22.187Z,10.50
2022-09-25T00:26:49.499Z,10.40
2022-09-25T00:29:20.530Z,10.40
2022-09-25T00:31:48.206Z,10.40
2022-09-25T00:34:15.539Z,10.40
2022-09-25T00:36:42.775Z,10.40
2022-09-25T00:39:10.226Z,10.40
2022-09-25T00:41:37.385Z,10.30
2022-09-25T00:44:58.104Z,10.30
2022-09-25T00:47:47.095Z,10.30
2022-09-25T00:50:26.715Z,10.30
2022-09-25T00:53:03.937Z,10.30
2022-09-25T00:55:34.560Z,10.30
2022-09-25T00:58:05.354Z,10.30
2022-09-25T01:00:34.262Z,10.20
2022-09-25T01:03:02.828Z,10.20
2022-09-25T01:05:35.749Z,10.20
2022-09-25T01:08:08.169Z,10.20
2022-09-25T01:10:36.513Z,10.20
2022-09-25T01:13:05.124Z,10.20
2022-09-25T01:15:44.337Z,10.20
2022-09-25T01:18:30.993Z,10.10
2022-09-25T01:21:22.102Z,10.10
2022-09-25T01:23:55.343Z,10.10
2022-09-25T01:27:19.146Z,10.10
2022-09-25T01:30:08.595Z,10.00
2022-09-25T01:32:55.015Z,10.00
2022-09-25T01:35:48.776Z,10.00
2022-09-25T01:38:42.509Z,10.00
2022-09-25T01:41:31.090Z,9.90
2022-09-25T01:44:13.673Z,9.90
2022-09-25T01:46:48.492Z,10.00
2022-09-25T01:49:32.058Z,9.90
2022-09-25T01:52:06.095Z,9.90
2022-09-25T01:54:41.625Z,9.90
2022-09-25T01:57:29.817Z,9.90
2022-09-25T02:00:10.742Z,9.90
2022-09-25T02:02:55.246Z,9.90
2022-09-25T02:05:31.166Z,9.90
2022-09-25T02:08:09.675Z,9.90
2022-09-25T02:10:45.049Z,9.90
2022-09-25T02:13:17.987Z,9.90
2022-09-25T02:15:56.637Z,9.90
2022-09-25T02:18:46.456Z,9.90
2022-09-25T02:21:25.720Z,9.90
2022-09-25T02:24:03.529Z,10.00
2022-09-25T02:26:35.051Z,9.90
2022-09-25T02:29:04.495Z,9.90
2022-09-25T02:31:48.233Z,9.90
2022-09-25T02:34:16.396Z,9.90
2022-09-25T02:36:44.786Z,9.90
2022-09-25T02:39:17.249Z,9.90
2022-09-25T02:42:28.853Z,10.00
2022-09-25T02:45:16.731Z,9.90
2022-09-25T02:48:26.018Z,9.90
2022-09-25T02:51:17.591Z,9.90
2022-09-25T02:53:55.791Z,9.90
2022-09-25T02:57:24.703Z,9.90
2022-09-25T03:00:00.406Z,9.90
2022-09-25T03:02:30.098Z,9.90
2022-09-25T03:04:59.270Z,9.90
2022-09-25T03:07:27.106Z,9.90
2022-09-25T03:09:58.910Z,9.90
2022-09-25T03:12:26.488Z,9.90
2022-09-25T03:14:53.462Z,9.90
2022-09-25T03:17:23.144Z,9.90
2022-09-25T03:19:50.571Z,9.90
2022-09-25T03:22:20.998Z,9.90
2022-09-25T03:24:50.807Z,9.90
2022-09-25T03:27:19.697Z,9.90
2022-09-25T03:29:47.066Z,9.90
2022-09-25T03:32:14.883Z,9.90
2022-09-25T03:34:42.304Z,9.90
2022-09-25T03:37:09.258Z,9.80
2022-09-25T03:39:36.242Z,9.80
2022-09-25T03:42:04.805Z,9.80
2022-09-25T03:44:31.835Z,9.80
2022-09-25T03:46:58.834Z,9.90
2022-09-25T03:49:26.296Z,9.90
2022-09-25T03:51:53.227Z,9.90
2022-09-25T03:54:20.614Z,9.80
2022-09-25T03:56:48.099Z,9.70
2022-09-25T03:59:16.809Z,9.60
2022-09-25T04:01:45.955Z,9.50
2022-09-25T04:04:14.325Z,9.50
2022-09-25T04:06:41.302Z,9.40
2022-09-25T04:09:08.695Z,9.50
2022-09-25T04:11:37.988Z,9.40
2022-09-25T04:14:06.085Z,9.30
2022-09-25T04:16:33.151Z,9.50
2022-09-25T04:19:00.633Z,9.60
2022-09-25T04:21:27.886Z,9.60
2022-09-25T04:24:13.781Z,9.70
2022-09-25T04:26:41.332Z,9.70
2022-09-25T04:29:09.074Z,9.70
2022-09-25T04:31:36.232Z,9.70
2022-09-25T04:34:04.391Z,9.70
2022-09-25T04:36:32.371Z,9.70
2022-09-25T04:38:59.745Z,9.70
2022-09-25T04:41:27.082Z,9.70
2022-09-25T04:43:54.235Z,9.70
2022-09-25T04:46:22.705Z,9.70
2022-09-25T04:48:50.773Z,9.70
2022-09-25T04:51:18.233Z,9.70
2022-09-25T04:53:45.244Z,9.70
2022-09-25T04:56:16.032Z,9.70
2022-09-25T04:58:49.611Z,9.70
2022-09-25T05:01:20.241Z,9.70
2022-09-25T05:03:54.234Z,9.70
2022-09-25T05:06:23.187Z,9.70
2022-09-25T05:08:50.668Z,9.70
2022-09-25T05:11:18.249Z,9.70
2022-09-25T05:13:53.758Z,9.80
2022-09-25T05:16:21.533Z,9.70
2022-09-25T05:18:49.087Z,9.80
2022-09-25T05:21:16.186Z,9.80
2022-09-25T05:23:43.303Z,9.80
2022-09-25T05:26:11.038Z,9.90
2022-09-25T05:28:38.478Z,9.80
2022-09-25T05:31:06.198Z,9.90
2022-09-25T05:33:35.353Z,9.90
2022-09-25T05:36:05.629Z,9.90
2022-09-25T05:38:35.219Z,9.90
2022-09-25T05:41:10.739Z,9.90
2022-09-25T05:43:44.858Z,9.90
2022-09-25T05:46:12.385Z,9.90
2022-09-25T05:48:40.285Z,9.90
2022-09-25T05:51:08.035Z,10.00
2022-09-25T05:53:35.842Z,10.00
2022-09-25T05:56:05.542Z,10.00
2022-09-25T05:58:35.358Z,10.10
2022-09-25T06:01:05.538Z,10.10
2022-09-25T06:03:33.187Z,10.00
2022-09-25T06:06:01.063Z,10.00
2022-09-25T06:08:31.239Z,10.10
2022-09-25T06:11:03.402Z,10.10
2022-09-25T06:13:34.762Z,10.20
2022-09-25T06:16:04.119Z,10.20
2022-09-25T06:18:33.487Z,10.30
2022-09-25T06:21:04.718Z,10.30
2022-09-25T06:23:32.361Z,10.30
2022-09-25T06:26:06.993Z,10.40
2022-09-25T06:28:35.646Z,10.40
2022-09-25T06:31:04.923Z,10.50
2022-09-25T06:33:32.767Z,10.60
2022-09-25T06:36:00.773Z,10.70
2022-09-25T06:38:28.653Z,10.70
2022-09-25T06:40:59.508Z,10.70
2022-09-25T06:43:28.258Z,10.80
2022-09-25T06:45:59.749Z,10.90
2022-09-25T06:48:26.808Z,10.90
2022-09-25T06:50:57.149Z,10.90
2022-09-25T06:53:25.979Z,10.90
2022-09-25T06:55:56.919Z,10.90
2022-09-25T06:58:26.836Z,11.00
2022-09-25T07:00:56.148Z,11.00
2022-09-25T07:03:42.361Z,11.10
2022-09-25T07:06:20.337Z,11.10
2022-09-25T07:08:49.132Z,11.20
2022-09-25T07:11:26.128Z,11.20
2022-09-25T07:13:56.778Z,11.30
2022-09-25T07:16:29.702Z,11.40
2022-09-25T07:19:04.059Z,11.40
2022-09-25T07:21:32.305Z,11.60
2022-09-25T07:23:59.715Z,11.70
2022-09-25T07:26:30.159Z,11.70
2022-09-25T07:29:06.293Z,11.80
2022-09-25T07:31:37.650Z,11.90
2022-09-25T07:34:12.700Z,12.00
2022-09-25T07:36:44.127Z,12.20
2022-09-25T07:39:14.873Z,12.20
2022-09-25T07:41:44.644Z,12.30
2022-09-25T07:44:28.705Z,12.50
2022-09-25T07:46:58.168Z,12.60
2022-09-25T07:49:25.339Z,12.70
2022-09-25T07:51:52.907Z,12.80
2022-09-25T07:54:20.230Z,12.90
2022-09-25T07:56:47.393Z,12.90
2022-09-25T07:59:14.581Z,13.00
2022-09-25T08:01:44.891Z,13.20
2022-09-25T08:04:14.340Z,13.30
2022-09-25T08:06:41.435Z,13.40
2022-09-25T08:09:11.069Z,13.50
2022-09-25T08:11:38.833Z,13.60
2022-09-25T08:14:05.921Z,13.80
2022-09-25T08:16:33.341Z,13.90
2022-09-25T08:19:00.305Z,14.00
2022-09-25T08:21:27.296Z,14.10
2022-09-25T08:23:55.577Z,14.20
2022-09-25T08:26:23.441Z,14.30
2022-09-25T08:28:51.820Z,14.40
2022-09-25T08:31:19.569Z,14.50
2022-09-25T08:33:49.432Z,14.60
2022-09-25T08:36:17.936Z,14.70
2022-09-25T08:38:46.638Z,14.80
2022-09-25T08:41:24.363Z,14.90
2022-09-25T08:44:12.291Z,15.00
2022-09-25T08:47:19.075Z,15.10
2022-09-25T08:50:18.923Z,15.10
2022-09-25T08:52:51.403Z,15.20
2022-09-25T08:55:55.385Z,15.20
2022-09-25T08:58:30.741Z,15.30
2022-09-25T09:01:06.466Z,15.30
2022-09-25T09:04:04.254Z,15.30
2022-09-25T09:06:33.787Z,15.40
2022-09-25T09:09:22.235Z,15.50
2022-09-25T09:11:58.145Z,15.60
2022-09-25T09:14:32.159Z,15.60
2022-09-25T09:17:18.111Z,15.70
2022-09-25T09:19:53.013Z,15.70
2022-09-25T09:22:42.011Z,15.80
2022-09-25T09:26:13.795Z,15.80
2022-09-25T09:29:04.436Z,15.80
2022-09-25T09:32:32.639Z,15.90
2022-09-25T09:35:38.929Z,15.90
2022-09-25T09:39:03.607Z,15.90
2022-09-25T09:42:06.670Z,16.00
2022-09-25T09:44:51.465Z,16.00
2022-09-25T09:47:47.115Z,16.10
2022-09-25T09:50:42.486Z,16.10
2022-09-25T09:53:28.448Z,16.10
2022-09-25T09:56:09.186Z,16.20
2022-09-25T09:59:16.544Z,16.30
2022-09-25T10:01:52.265Z,16.30
2022-09-25T10:04:26.331Z,16.30
2022-09-25T10:07:03.131Z,16.30
2022-09-25T10:09:30.421Z,16.30
2022-09-25T10:12:12.178Z,16.40
2022-09-25T10:14:46.778Z,16.40
2022-09-25T10:17:16.220Z,16.50
2022-09-25T10:20:04.085Z,16.50
2022-09-25T10:22:40.859Z,16.50
2022-09-25T10:25:08.731Z,16.50
2022-09-25T10:27:46.030Z,16.50
2022-09-25T10:30:18.776Z,16.50
2022-09-25T10:33:02.991Z,16.60
2022-09-25T10:35:39.827Z,16.60
2022-09-25T10:38:32.192Z,16.60
2022-09-25T10:41:07.692Z,16.60
2022-09-25T10:43:35.142Z,16.60
2022-09-25T10:46:11.887Z,16.60
2022-09-25T10:48:59.469Z,16.60
2022-09-25T10:51:29.287Z,16.60
2022-09-25T10:54:16.323Z,16.60
2022-09-25T10:56:44.019Z,16.60
2022-09-25T10:59:21.410Z,16.60
2022-09-25T11:01:53.052Z,16.60
2022-09-25T11:04:28.364Z,16.60
2022-09-25T11:07:02.641Z,16.60
2022-09-25T11:09:33.148Z,16.60
2022-09-25T11:12:22.103Z,16.60
2022-09-25T11:15:02.474Z,16.60
2022-09-25T11:17:42.156Z,16.60
2022-09-25T11:20:16.336Z,16.60
2022-09-25T11:23:10.708Z,16.70
2022-09-25T11:26:08.900Z,16.70
2022-09-25T11:29:34.170Z,16.60
2022-09-25T11:32:26.941Z,16.60
2022-09-25T11:35:39.622Z,16.60
2022-09-25T11:38:50.495Z,16.60
2022-09-25T11:41:41.065Z,16.60
2022-09-25T11:44:40.051Z,16.60
2022-09-25T11:47:25.775Z,16.70
2022-09-25T11:49:58.196Z,16.80
2022-09-25T11:53:15.025Z,16.80
2022-09-25T11:56:13.645Z,16.80
2022-09-25T11:58:55.322Z,16.80
2022-09-25T12:01:39.017Z,16.90
2022-09-25T12:04:15.882Z,17.10
2022-09-25T12:07:05.978Z,17.20
2022-09-25T12:09:55.379Z,17.30
2022-09-25T12:12:26.301Z,17.30
2022-09-25T12:15:27.842Z,17.40
2022-09-25T12:18:18.848Z,17.40
2022-09-25T12:21:05.937Z,17.50
2022-09-25T12:23:48.147Z,17.50
2022-09-25T12:26:39.571Z,17.60
2022-09-25T12:29:25.991Z,17.60
2022-09-25T12:32:38.139Z,17.70
2022-09-25T12:35:45.830Z,17.80
2022-09-25T12:38:53.264Z,17.80
2022-09-25T12:41:43.856Z,17.80
2022-09-25T12:44:39.598Z,17.80
2022-09-25T12:47:24.109Z,17.90
2022-09-25T12:50:13.300Z,17.80
2022-09-25T12:52:51.112Z,17.90
2022-09-25T12:55:48.064Z,17.90
2022-09-25T12:58:46.586Z,18.00
2022-09-25T13:01:45.496Z,18.00
2022-09-25T13:04:37.665Z,17.90
2022-09-25T13:07:29.095Z,17.90
2022-09-25T13:09:56.178Z,18.00
2022-09-25T13:12:39.931Z,18.00
2022-09-25T13:15:25.796Z,18.00
2022-09-25T13:17:53.297Z,17.90
2022-09-25T13:20:29.664Z,17.90
2022-09-25T13:23:03.375Z,17.90
2022-09-25T13:25:41.658Z,17.90
2022-09-25T13:28:20.548Z,17.80
2022-09-25T13:31:09.277Z,17.80
2022-09-25T13:33:52.673Z,17.90
2022-09-25T13:36:23.355Z,17.90
2022-09-25T13:39:19.217Z,17.90
2022-09-25T13:41:58.835Z,17.80
2022-09-25T13:44:44.485Z,17.80
2022-09-25T13:47:29.814Z,17.80
2022-09-25T13:50:09.350Z,17.80
2022-09-25T13:52:36.458Z,17.80
2022-09-25T13:55:20.912Z,17.70
2022-09-25T13:57:59.997Z,17.70
2022-09-25T14:00:36.605Z,17.70
2022-09-25T14:03:05.170Z,17.70
2022-09-25T14:05:37.679Z,17.60
2022-09-25T14:08:16.379Z,17.60
2022-09-25T14:10:48.318Z,17.60
2022-09-25T14:13:19.245Z,17.60
2022-09-25T14:15:47.111Z,17.60
2022-09-25T14:18:36.377Z,17.50
2022-09-25T14:21:09.727Z,17.50
2022-09-25T14:24:11.797Z,17.50
2022-09-25T14:26:45.634Z,17.40
2022-09-25T14:29:38.877Z,17.40
2022-09-25T14:32:54.998Z,17.40
2022-09-25T14:35:53.420Z,17.30
2022-09-25T14:38:50.196Z,17.30
2022-09-25T14:41:49.743Z,17.30
2022-09-25T14:44:49.168Z,17.30
2022-09-25T14:47:20.027Z,17.20
2022-09-25T14:49:53.325Z,17.20
2022-09-25T14:52:28.395Z,17.10
2022-09-25T14:54:57.625Z,17.10
2022-09-25T14:57:31.175Z,17.10
2022-09-25T15:00:05.907Z,17.10
2022-09-25T15:02:41.026Z,17.10
2022-09-25T15:05:34.174Z,17.10
2022-09-25T15:08:18.910Z,17.10
2022-09-25T15:10:46.627Z,17.00
2022-09-25T15:13:20.739Z,17.00
2022-09-25T15:16:16.427Z,17.00
2022-09-25T15:18:54.170Z,16.90
2022-09-25T15:21:34.395Z,16.90
2022-09-25T15:24:07.016Z,16.80
2022-09-25T15:26:45.756Z,16.80
2022-09-25T15:29:22.099Z,16.80
2022-09-25T15:31:51.546Z,16.80
2022-09-25T15:34:33.480Z,16.80
2022-09-25T15:37:16.647Z,16.70
2022-09-25T15:39:45.065Z,16.70
2022-09-25T15:42:16.600Z,16.70
2022-09-25T15:44:44.120Z,16.70
2022-09-25T15:47:35.835Z,16.70
2022-09-25T15:50:16.566Z,16.70
2022-09-25T15:52:50.607Z,16.60
2022-09-25T15:55:19.827Z,16.70
2022-09-25T15:57:49.542Z,16.60
2022-09-25T16:00:40.486Z,16.60
2022-09-25T16:03:40.426Z,16.60
2022-09-25T16:06:15.986Z,16.60
2022-09-25T16:08:44.027Z,16.60
2022-09-25T16:11:25.185Z,16.60
2022-09-25T16:14:20.051Z,16.50
2022-09-25T16:16:50.511Z,16.50
2022-09-25T16:19:27.713Z,16.50
2022-09-25T16:21:55.701Z,16.40
2022-09-25T16:24:29.075Z,16.50
2022-09-25T16:27:02.737Z,16.40
2022-09-25T16:29:34.887Z,16.40
2022-09-25T16:32:07.770Z,16.30
2022-09-25T16:34:41.510Z,16.30
2022-09-25T16:37:23.630Z,16.30
2022-09-25T16:40:38.423Z,16.20
2022-09-25T16:49:09.169Z,16.20
2022-09-25T16:51:38.573Z,16.10
2022-09-25T16:54:11.375Z,16.10
2022-09-25T16:56:41.018Z,16.10
2022-09-25T16:59:19.531Z,16.10
2022-09-25T17:01:50.012Z,16.00
2022-09-25T17:04:18.134Z,16.00
2022-09-25T17:06:48.442Z,16.00
2022-09-25T17:09:17.894Z,15.90
2022-09-25T17:11:50.179Z,15.90
2022-09-25T17:14:24.834Z,15.90
2022-09-25T17:16:54.043Z,15.90
2022-09-25T17:19:22.691Z,15.90
2022-09-25T17:21:53.001Z,15.80
2022-09-25T17:24:27.562Z,15.80
2022-09-25T17:26:55.045Z,15.70
2022-09-25T17:29:22.554Z,15.70
2022-09-25T17:31:49.970Z,15.70
2022-09-25T17:34:19.230Z,15.70
2022-09-25T17:36:46.525Z,15.60
2022-09-25T17:39:14.054Z,15.60
2022-09-25T17:41:42.495Z,15.60
2022-09-25T17:44:20.565Z,15.60
2022-09-25T17:46:48.962Z,15.60
2022-09-25T17:49:16.543Z,15.60
2022-09-25T17:51:44.700Z,15.60
2022-09-25T17:54:13.346Z,15.60
2022-09-25T17:56:42.668Z,15.50
2022-09-25T17:59:10.344Z,15.50
2022-09-25T18:01:39.705Z,15.50
2022-09-25T18:04:24.885Z,15.40
2022-09-25T18:06:52.970Z,15.30
2022-09-25T18:09:20.360Z,15.40
2022-09-25T18:11:47.990Z,15.40
2022-09-25T18:14:16.831Z,15.40
2022-09-25T18:16:45.333Z,15.30
2022-09-25T18:19:36.979Z,15.30
2022-09-25T18:22:17.614Z,15.30
2022-09-25T18:24:52.766Z,15.30
2022-09-25T18:27:20.978Z,15.30
2022-09-25T18:29:48.146Z,15.30
2022-09-25T18:32:15.892Z,15.20
2022-09-25T18:34:43.439Z,15.20
2022-09-25T18:37:11.540Z,15.20
2022-09-25T18:39:38.987Z,15.20
2022-09-25T18:42:06.626Z,15.20
2022-09-25T18:44:42.298Z,15.10
2022-09-25T18:47:12.104Z,15.10
2022-09-25T18:49:39.449Z,15.20
2022-09-25T18:52:06.645Z,15.10
2022-09-25T18:54:35.003Z,15.10
2022-09-25T18:57:03.235Z,15.10
2022-09-25T18:59:30.477Z,15.00
2022-09-25T19:01:58.319Z,15.00
2022-09-25T19:04:26.148Z,15.00
2022-09-25T19:06:53.409Z,15.10
2022-09-25T19:09:27.525Z,15.00
2022-09-25T19:11:55.385Z,15.00
2022-09-25T19:14:24.282Z,15.00
2022-09-25T19:16:53.266Z,15.00
2022-09-25T19:19:20.927Z,14.90
2022-09-25T19:21:48.789Z,14.90
2022-09-25T19:24:18.115Z,14.90
2022-09-25T19:26:45.418Z,14.90
2022-09-25T19:29:12.765Z,14.90
2022-09-25T19:31:39.977Z,14.90
2022-09-25T19:34:07.378Z,14.90
2022-09-25T19:36:35.156Z,14.90
2022-09-25T19:39:03.719Z,14.90
2022-09-25T19:41:35.136Z,14.80
2022-09-25T19:44:13.690Z,14.80
2022-09-25T19:46:46.511Z,14.80
2022-09-25T19:49:17.063Z,14.80
2022-09-25T19:51:45.059Z,14.80
2022-09-25T19:54:14.775Z,14.80
2022-09-25T19:56:43.025Z,14.70
2022-09-25T19:59:14.917Z,14.70
2022-09-25T20:01:43.443Z,14.70
2022-09-25T20:04:18.037Z,14.70
2022-09-25T20:06:47.665Z,14.60
2022-09-25T20:09:15.396Z,14.60
2022-09-25T20:11:43.280Z,14.60
2022-09-25T20:14:11.387Z,14.60
2022-09-25T20:16:40.077Z,14.60
2022-09-25T20:19:08.356Z,14.60
2022-09-25T20:21:38.683Z,14.60
2022-09-25T20:24:08.402Z,14.50
2022-09-25T20:26:36.406Z,14.60
2022-09-25T20:29:10.092Z,14.50
2022-09-25T20:31:39.511Z,14.50
2022-09-25T20:34:07.054Z,14.50
2022-09-25T20:36:36.229Z,14.50
2022-09-25T20:39:03.299Z,14.50
2022-09-25T20:41:31.714Z,14.40
2022-09-25T20:43:59.179Z,14.40
2022-09-25T20:46:27.434Z,14.40
2022-09-25T20:48:57.467Z,14.40
2022-09-25T20:51:31.218Z,14.30
2022-09-25T20:54:09.134Z,14.40
2022-09-25T20:56:38.580Z,14.30
2022-09-25T20:59:06.048Z,14.30
2022-09-25T21:01:36.998Z,14.30
2022-09-25T21:04:08.225Z,14.30
2022-09-25T21:06:38.946Z,14.30
2022-09-25T21:09:12.663Z,14.20
2022-09-25T21:11:40.398Z,14.20
2022-09-25T21:14:19.505Z,14.20
2022-09-25T21:16:48.744Z,14.20
2022-09-25T21:19:18.857Z,14.20
2022-09-25T21:21:46.750Z,14.10
2022-09-25T21:24:16.862Z,14.10
2022-09-25T21:26:45.484Z,14.10
2022-09-25T21:29:15.699Z,14.00
2022-09-25T21:31:48.978Z,14.00
2022-09-25T21:34:17.653Z,14.00
2022-09-25T21:36:45.510Z,13.90
2022-09-25T21:39:13.304Z,13.90
2022-09-25T21:41:41.355Z,13.80
2022-09-25T21:44:14.901Z,13.80
2022-09-25T21:46:43.376Z,13.80
2022-09-25T21:49:17.404Z,13.80
2022-09-25T21:51:46.374Z,13.70
2022-09-25T21:54:15.963Z,13.70
2022-09-25T21:56:44.504Z,13.70
2022-09-25T21:59:12.626Z,13.70
2022-09-25T22:01:41.387Z,13.60
2022-09-25T22:04:13.505Z,13.60
2022-09-25T22:06:46.132Z,13.50
2022-09-25T22:09:20.399Z,13.50
2022-09-25T22:11:49.521Z,13.50
2022-09-25T22:14:18.287Z,13.50
2022-09-25T22:16:49.090Z,13.40
2022-09-25T22:19:25.800Z,13.40
2022-09-25T22:21:56.678Z,13.40
2022-09-25T22:24:24.853Z,13.30
2022-09-25T22:26:54.735Z,13.30
2022-09-25T22:29:23.386Z,13.30
2022-09-25T22:31:51.449Z,13.30
2022-09-25T22:34:24.696Z,13.20
2022-09-25T22:36:58.143Z,13.20
2022-09-25T22:39:28.459Z,13.10
2022-09-25T22:41:57.407Z,13.00
2022-09-25T22:44:25.335Z,13.00
2022-09-25T22:46:52.971Z,13.00
2022-09-25T22:49:20.381Z,13.00
2022-09-25T22:51:47.607Z,13.00
2022-09-25T22:54:15.378Z,12.90
2022-09-25T22:56:43.878Z,12.90
2022-09-25T22:59:17.858Z,12.90
2022-09-25T23:01:52.286Z,12.80
2022-09-25T23:04:25.056Z,12.80
2022-09-25T23:06:52.647Z,12.80
2022-09-25T23:09:25.805Z,12.80
2022-09-25T23:11:55.489Z,12.70
2022-09-25T23:14:30.358Z,12.70
2022-09-25T23:16:58.684Z,12.70
2022-09-25T23:19:26.882Z,12.70
2022-09-25T23:21:55.171Z,12.60
2022-09-25T23:24:23.069Z,12.60
2022-09-25T23:26:51.642Z,12.50
2022-09-25T23:29:21.398Z,12.50
2022-09-25T23:31:49.881Z,12.50
2022-09-25T23:34:17.959Z,12.40
2022-09-25T23:36:45.016Z,12.40
2022-09-25T23:39:18.682Z,12.40
2022-09-25T23:41:47.573Z,12.30
2022-09-25T23:44:14.800Z,12.30
2022-09-25T23:46:43.430Z,12.20
2022-09-25T23:49:12.576Z,12.20
2022-09-25T23:51:40.584Z,12.20
2022-09-25T23:54:07.827Z,12.10
2022-09-25T23:56:36.302Z,12.10
2022-09-25T23:59:04.510Z,12.10
